Terminal Aerodrome Forecast
Issued by NWS

Home | Current Version | Previous Version | Text Only | Print | Product List | Glossary On
Versions: 1 2 3 4 5 6 7 8 9 10 11 12 13
000
FTUS45 KTFX 231139
TAFBZN
TAF
KBZN 231139Z 2312/2412 VRB05KT P6SM BKN060
     FM231900 VRB05KT P6SM VCSH OVC050
      TEMPO 2319/2323 -SHRA OVC035
     FM232300 06006KT P6SM -SHRA OVC050
      TEMPO 2323/2403 P6SM NSW SCT050 OVC090
     FM240400 VRB05KT P6SM VCSH OVC050=

USA.gov is the U.S. government's official web portal to all federal, state and local government web resources and services.